createdAt,value
2019-01-10T00:00:11.477Z,3.07
2019-01-10T00:02:42.463Z,4.23
2019-01-10T00:05:14.514Z,3.03
2019-01-10T00:07:45.987Z,3.50
2019-01-10T00:10:18.192Z,3.20
2019-01-10T00:12:49.667Z,3.23
2019-01-10T00:15:26.470Z,3.70
2019-01-10T00:18:12.733Z,3.60
2019-01-10T00:20:53.240Z,3.20
2019-01-10T00:23:27.517Z,3.17
2019-01-10T00:26:01.990Z,3.30
2019-01-10T00:28:33.268Z,2.50
2019-01-10T00:31:04.745Z,2.50
2019-01-10T00:33:36.026Z,2.77
2019-01-10T00:36:07.440Z,2.13
2019-01-10T00:38:38.732Z,2.80
2019-01-10T00:41:10.017Z,2.63
2019-01-10T00:43:41.471Z,3.10
2019-01-10T00:46:12.813Z,4.10
2019-01-10T00:48:44.154Z,2.60
2019-01-10T00:51:15.422Z,3.10
2019-01-10T00:53:46.835Z,3.10
2019-01-10T00:56:18.111Z,2.80
2019-01-10T00:58:49.658Z,3.30
2019-01-10T01:01:20.913Z,2.97
2019-01-10T01:03:52.236Z,2.53
2019-01-10T01:06:23.654Z,2.87
2019-01-10T01:08:54.938Z,2.60
2019-01-10T01:11:26.283Z,3.70
2019-01-10T01:13:57.630Z,2.50
2019-01-10T01:16:29.752Z,2.33
2019-01-10T01:19:01.061Z,2.50
2019-01-10T01:21:32.348Z,2.37
2019-01-10T01:24:05.917Z,3.57
2019-01-10T01:26:37.221Z,2.97
2019-01-10T01:29:08.464Z,2.70
2019-01-10T01:31:39.777Z,2.50
2019-01-10T01:34:11.034Z,2.87
2019-01-10T01:36:42.358Z,2.93
2019-01-10T01:39:13.736Z,2.73
2019-01-10T01:41:45.023Z,2.87
2019-01-10T01:44:16.285Z,2.13
2019-01-10T01:46:47.611Z,3.33
2019-01-10T01:49:19.037Z,3.13
2019-01-10T01:51:50.434Z,4.00
2019-01-10T01:54:21.738Z,3.47
2019-01-10T01:56:52.993Z,3.10
2019-01-10T01:59:24.280Z,3.03
2019-01-10T02:01:55.556Z,3.80
2019-01-10T02:04:26.862Z,3.20
2019-01-10T02:06:58.145Z,4.00
2019-01-10T02:09:29.453Z,3.07
2019-01-10T02:12:00.941Z,3.40
2019-01-10T02:14:32.248Z,2.80
2019-01-10T02:17:03.502Z,4.83
2019-01-10T02:19:34.740Z,4.00
2019-01-10T02:22:06.319Z,4.27
2019-01-10T02:24:37.567Z,3.83
2019-01-10T02:27:08.855Z,3.00
2019-01-10T02:29:40.068Z,3.40
2019-01-10T02:32:11.597Z,3.33
2019-01-10T02:34:42.773Z,3.13
2019-01-10T02:37:14.133Z,3.73
2019-01-10T02:39:45.359Z,3.07
2019-01-10T02:42:16.702Z,3.43
2019-01-10T02:44:47.952Z,2.67
2019-01-10T02:47:19.232Z,2.60
2019-01-10T02:49:50.467Z,2.70
2019-01-10T02:52:21.707Z,2.70
2019-01-10T02:54:52.771Z,3.03
2019-01-10T02:57:24.003Z,3.20
2019-01-10T02:59:55.294Z,2.30
2019-01-10T03:02:26.569Z,3.67
2019-01-10T03:04:57.773Z,3.50
2019-01-10T03:07:31.820Z,2.50
2019-01-10T03:10:02.968Z,2.90
2019-01-10T03:12:34.139Z,2.47
2019-01-10T03:15:07.486Z,3.13
2019-01-10T03:17:38.689Z,2.40
2019-01-10T03:20:16.254Z,3.37
2019-01-10T03:22:47.406Z,2.50
2019-01-10T03:25:18.779Z,3.17
2019-01-10T03:27:50.030Z,2.73
2019-01-10T03:30:21.888Z,3.07
2019-01-10T03:32:53.157Z,2.90
2019-01-10T03:35:24.448Z,3.43
2019-01-10T03:37:55.686Z,3.00
2019-01-10T03:40:27.006Z,3.63
2019-01-10T03:42:58.198Z,3.97
2019-01-10T03:45:29.337Z,2.90
2019-01-10T03:48:00.620Z,2.80
2019-01-10T03:50:31.851Z,3.20
2019-01-10T03:53:03.118Z,2.50
2019-01-10T03:55:34.541Z,3.10
2019-01-10T03:58:05.851Z,3.33
2019-01-10T04:00:36.991Z,3.20
2019-01-10T04:03:08.291Z,3.00
2019-01-10T04:05:39.514Z,4.67
2019-01-10T04:08:10.766Z,3.10
2019-01-10T04:10:41.998Z,3.50
2019-01-10T04:13:13.293Z,3.10
2019-01-10T04:15:44.612Z,2.47
2019-01-10T04:18:15.892Z,3.00
2019-01-10T04:20:47.148Z,2.97
2019-01-10T04:23:18.402Z,3.33
2019-01-10T04:25:49.703Z,2.83
2019-01-10T04:28:20.986Z,3.10
2019-01-10T04:30:52.194Z,3.47
2019-01-10T04:33:23.445Z,3.20
2019-01-10T04:35:54.577Z,3.27
2019-01-10T04:38:25.863Z,3.50
2019-01-10T04:40:57.106Z,4.90
2019-01-10T04:43:28.410Z,3.37
2019-01-10T04:45:59.620Z,2.97
2019-01-10T04:48:30.939Z,3.23
2019-01-10T04:51:02.208Z,2.90
2019-01-10T04:53:33.501Z,2.33
2019-01-10T04:56:04.738Z,3.57
2019-01-10T04:58:35.982Z,3.20
2019-01-10T05:01:07.373Z,2.60
2019-01-10T05:03:38.617Z,3.30
2019-01-10T05:06:09.898Z,3.17
2019-01-10T05:08:41.126Z,3.83
2019-01-10T05:11:12.418Z,3.57
2019-01-10T05:13:43.884Z,3.37
2019-01-10T05:16:15.171Z,2.93
2019-01-10T05:18:46.396Z,4.40
2019-01-10T05:21:17.716Z,3.27
2019-01-10T05:23:48.930Z,4.90
2019-01-10T05:26:20.225Z,3.90
2019-01-10T05:28:51.352Z,5.03
2019-01-10T05:31:22.623Z,3.03
2019-01-10T05:33:54.275Z,4.23
2019-01-10T05:36:25.553Z,3.30
2019-01-10T05:38:56.785Z,3.70
2019-01-10T05:41:28.098Z,3.87
2019-01-10T05:43:59.336Z,4.27
2019-01-10T05:46:30.618Z,4.43
2019-01-10T05:49:01.839Z,3.80
2019-01-10T05:51:33.179Z,4.20
2019-01-10T05:54:04.546Z,2.63
2019-01-10T05:56:35.779Z,4.13
2019-01-10T05:59:07.000Z,3.90
2019-01-10T06:01:38.322Z,3.40
2019-01-10T06:04:09.697Z,3.50
2019-01-10T06:06:40.954Z,3.80
2019-01-10T06:09:12.208Z,4.20
2019-01-10T06:11:43.510Z,3.77
2019-01-10T06:14:14.788Z,4.47
2019-01-10T06:16:46.152Z,3.90
2019-01-10T06:19:26.477Z,3.50
2019-01-10T06:21:50.412Z,3.70
2019-01-10T06:24:21.719Z,4.27
2019-01-10T06:26:53.007Z,3.70
2019-01-10T06:29:24.270Z,4.30
2019-01-10T06:31:55.595Z,3.93
2019-01-10T06:34:26.825Z,4.80
2019-01-10T06:36:58.047Z,6.23
2019-01-10T06:39:29.353Z,3.90
2019-01-10T06:42:00.652Z,3.40
2019-01-10T06:44:31.881Z,4.33
2019-01-10T06:47:03.044Z,4.13
2019-01-10T06:49:34.296Z,3.80
2019-01-10T06:52:05.588Z,5.03
2019-01-10T06:54:36.805Z,4.53
2019-01-10T06:57:09.644Z,3.83
2019-01-10T06:59:40.828Z,3.60
2019-01-10T07:02:12.271Z,3.80
2019-01-10T07:04:43.676Z,3.40
2019-01-10T07:07:14.831Z,4.50
2019-01-10T07:09:46.032Z,3.17
2019-01-10T07:12:17.306Z,3.73
2019-01-10T07:14:53.577Z,3.80
2019-01-10T07:17:21.518Z,4.30
2019-01-10T07:19:52.760Z,5.03
2019-01-10T07:22:24.050Z,4.90
2019-01-10T07:24:58.607Z,4.80
2019-01-10T07:27:29.975Z,3.80
2019-01-10T07:30:01.239Z,4.07
2019-01-10T07:32:32.426Z,4.20
2019-01-10T07:35:12.627Z,4.60
2019-01-10T07:37:46.490Z,5.40
2019-01-10T07:40:19.211Z,4.80
2019-01-10T07:42:50.819Z,4.67
2019-01-10T07:45:25.325Z,3.83
2019-01-10T07:47:56.787Z,5.40
2019-01-10T07:50:39.155Z,5.30
2019-01-10T07:53:11.576Z,3.83
2019-01-10T07:55:43.300Z,4.83
2019-01-10T07:58:14.559Z,4.33
2019-01-10T08:00:45.824Z,4.57
2019-01-10T08:03:17.078Z,5.07
2019-01-10T08:05:48.313Z,4.10
2019-01-10T08:08:19.621Z,3.97
2019-01-10T08:10:51.006Z,4.53
2019-01-10T08:13:22.226Z,3.90
2019-01-10T08:15:53.488Z,4.70
2019-01-10T08:18:24.747Z,4.70
2019-01-10T08:20:56.023Z,3.97
2019-01-10T08:23:27.431Z,5.10
2019-01-10T08:25:58.758Z,4.97
2019-01-10T08:28:30.136Z,5.30
2019-01-10T08:31:01.426Z,4.37
2019-01-10T08:33:32.691Z,4.27
2019-01-10T08:36:03.999Z,5.90
2019-01-10T08:38:35.340Z,4.00
2019-01-10T08:41:06.684Z,4.30
2019-01-10T08:43:37.917Z,3.77
2019-01-10T08:46:09.343Z,4.60
2019-01-10T08:48:40.619Z,3.87
2019-01-10T08:51:11.787Z,5.20
2019-01-10T08:53:43.114Z,4.00
2019-01-10T08:56:14.448Z,4.10
2019-01-10T08:58:45.693Z,4.90
2019-01-10T09:01:16.979Z,3.77
2019-01-10T09:03:49.349Z,5.20
2019-01-10T09:06:20.748Z,6.07
2019-01-10T09:08:51.994Z,4.70
2019-01-10T09:11:23.384Z,5.03
2019-01-10T09:13:54.652Z,4.77
2019-01-10T09:16:25.861Z,7.47
2019-01-10T09:18:57.098Z,5.10
2019-01-10T09:21:28.380Z,4.80
2019-01-10T09:24:01.956Z,4.60
2019-01-10T09:26:37.559Z,5.27
2019-01-10T09:29:06.252Z,5.97
2019-01-10T09:31:37.919Z,3.77
2019-01-10T09:34:09.161Z,6.77
2019-01-10T09:36:40.324Z,4.53
2019-01-10T09:39:11.689Z,4.57
2019-01-10T09:41:42.907Z,5.10
2019-01-10T09:44:14.271Z,4.60
2019-01-10T09:46:45.539Z,4.57
2019-01-10T09:49:16.756Z,5.80
2019-01-10T09:51:48.025Z,4.63
2019-01-10T09:54:19.203Z,4.27
2019-01-10T09:56:50.560Z,4.23
2019-01-10T09:59:21.807Z,4.20
2019-01-10T10:01:53.067Z,4.53
2019-01-10T10:04:24.357Z,5.57
2019-01-10T10:06:57.774Z,4.50
2019-01-10T10:09:29.045Z,5.20
2019-01-10T10:12:00.295Z,4.43
2019-01-10T10:14:31.547Z,4.47
2019-01-10T10:17:02.787Z,4.60
2019-01-10T10:19:38.174Z,3.87
2019-01-10T10:22:09.451Z,4.70
2019-01-10T10:24:40.668Z,5.10
2019-01-10T10:27:12.797Z,4.97
2019-01-10T10:29:44.045Z,3.97
2019-01-10T10:32:15.328Z,3.90
2019-01-10T10:34:46.500Z,3.90
2019-01-10T10:37:17.741Z,3.97
2019-01-10T10:39:48.960Z,4.03
2019-01-10T10:42:20.225Z,3.77
2019-01-10T10:44:51.471Z,4.70
2019-01-10T10:47:22.771Z,4.13
2019-01-10T10:49:54.062Z,4.10
2019-01-10T10:52:25.319Z,4.03
2019-01-10T10:54:56.690Z,3.40
2019-01-10T10:57:28.112Z,3.70
2019-01-10T10:59:59.376Z,3.30
2019-01-10T11:02:30.668Z,4.57
2019-01-10T11:05:01.933Z,3.67
2019-01-10T11:07:33.189Z,3.30
2019-01-10T11:10:04.937Z,3.93
2019-01-10T11:12:36.192Z,4.73
2019-01-10T11:15:09.081Z,4.07
2019-01-10T11:17:40.580Z,3.80
2019-01-10T11:20:16.191Z,4.03
2019-01-10T11:22:47.536Z,4.30
2019-01-10T11:25:22.481Z,7.13
2019-01-10T11:27:53.714Z,6.50
2019-01-10T11:30:24.982Z,4.33
2019-01-10T11:32:56.225Z,4.47
2019-01-10T11:35:27.455Z,4.03
2019-01-10T11:37:58.888Z,4.00
2019-01-10T11:40:30.086Z,3.70
2019-01-10T11:43:01.308Z,4.03
2019-01-10T11:45:32.551Z,3.30
2019-01-10T11:48:03.790Z,4.20
2019-01-10T11:50:35.043Z,4.23
2019-01-10T11:53:06.268Z,3.80
2019-01-10T11:55:37.433Z,4.70
2019-01-10T11:58:08.677Z,3.60
2019-01-10T12:00:39.915Z,4.40
2019-01-10T12:03:11.665Z,4.57
2019-01-10T12:05:48.668Z,3.50
2019-01-10T12:08:19.881Z,3.43
2019-01-10T12:10:51.348Z,4.07
2019-01-10T12:13:22.590Z,3.10
2019-01-10T12:15:53.838Z,4.37
2019-01-10T12:18:24.966Z,4.27
2019-01-10T12:20:56.144Z,3.53
2019-01-10T12:23:27.367Z,3.90
2019-01-10T12:25:58.629Z,3.60
2019-01-10T12:28:29.843Z,4.20
2019-01-10T12:31:01.089Z,3.90
2019-01-10T12:33:32.533Z,4.57
2019-01-10T12:36:03.860Z,5.03
2019-01-10T12:38:35.115Z,3.20
2019-01-10T12:41:06.395Z,4.73
2019-01-10T12:43:37.860Z,3.90
2019-01-10T12:46:09.295Z,3.77
2019-01-10T12:48:40.491Z,3.80
2019-01-10T12:51:11.794Z,3.60
2019-01-10T12:53:43.093Z,6.00
2019-01-10T12:56:14.287Z,3.60
2019-01-10T12:58:45.570Z,4.23
2019-01-10T13:01:16.831Z,5.30
2019-01-10T13:03:48.163Z,3.50
2019-01-10T13:06:19.381Z,3.70
2019-01-10T13:08:50.662Z,4.93
2019-01-10T13:11:21.913Z,5.60
2019-01-10T13:13:54.128Z,6.07
2019-01-10T13:16:25.491Z,6.40
2019-01-10T13:18:56.802Z,3.50
2019-01-10T13:21:28.198Z,3.83
2019-01-10T13:23:59.546Z,5.27
2019-01-10T13:26:30.918Z,3.90
2019-01-10T13:29:02.111Z,4.47
2019-01-10T13:31:33.373Z,5.53
2019-01-10T13:34:04.844Z,5.10
2019-01-10T13:36:36.114Z,4.00
2019-01-10T13:39:10.749Z,3.57
2019-01-10T13:41:42.001Z,5.10
2019-01-10T13:44:13.221Z,3.80
2019-01-10T13:46:44.612Z,3.60
2019-01-10T13:49:20.411Z,4.07
2019-01-10T13:51:51.695Z,3.90
2019-01-10T13:54:22.846Z,4.23
2019-01-10T13:56:54.067Z,3.60
2019-01-10T13:59:25.295Z,4.90
2019-01-10T14:01:56.541Z,3.77
2019-01-10T14:04:27.887Z,3.90
2019-01-10T14:06:59.163Z,3.80
2019-01-10T14:09:30.430Z,4.17
2019-01-10T14:12:01.676Z,3.47
2019-01-10T14:14:32.939Z,4.20
2019-01-10T14:17:04.166Z,4.00
2019-01-10T14:19:35.374Z,3.20
2019-01-10T14:22:06.582Z,3.67
2019-01-10T14:24:38.124Z,4.60
2019-01-10T14:27:10.178Z,4.07
2019-01-10T14:29:41.441Z,3.30
2019-01-10T14:32:12.693Z,5.77
2019-01-10T14:34:43.932Z,6.57
2019-01-10T14:37:15.573Z,5.33
2019-01-10T14:39:47.035Z,4.40
2019-01-10T14:42:18.362Z,4.63
2019-01-10T14:44:49.523Z,4.30
2019-01-10T14:47:20.822Z,4.57
2019-01-10T14:49:51.977Z,4.27
2019-01-10T14:52:23.258Z,3.67
2019-01-10T14:54:54.409Z,4.07
2019-01-10T14:57:25.577Z,3.77
2019-01-10T14:59:56.856Z,4.27
2019-01-10T15:02:28.225Z,4.30
2019-01-10T15:04:59.517Z,4.17
2019-01-10T15:07:30.889Z,4.00
2019-01-10T15:10:02.166Z,5.40
2019-01-10T15:12:33.430Z,4.83
2019-01-10T15:15:06.400Z,4.60
2019-01-10T15:17:37.653Z,4.30
2019-01-10T15:20:13.725Z,5.80
2019-01-10T15:22:45.028Z,4.93
2019-01-10T15:25:16.396Z,4.87
2019-01-10T15:27:47.637Z,4.90
2019-01-10T15:30:22.180Z,4.97
2019-01-10T15:32:53.439Z,4.80
2019-01-10T15:35:25.205Z,4.57
2019-01-10T15:37:56.556Z,4.73
2019-01-10T15:40:33.873Z,3.90
2019-01-10T15:43:08.415Z,4.37
2019-01-10T15:45:39.681Z,4.30
2019-01-10T15:48:11.057Z,4.83
2019-01-10T15:50:42.331Z,4.20
2019-01-10T15:53:13.595Z,3.17
2019-01-10T15:55:44.715Z,4.20
2019-01-10T15:58:15.973Z,5.00
2019-01-10T16:00:47.165Z,4.43
2019-01-10T16:03:18.408Z,4.90
2019-01-10T16:05:49.740Z,4.73
2019-01-10T16:08:27.384Z,5.17
2019-01-10T16:10:58.759Z,4.67
2019-01-10T16:13:30.103Z,3.97
2019-01-10T16:16:01.430Z,5.13
2019-01-10T16:18:32.733Z,4.60
2019-01-10T16:21:04.032Z,5.40
2019-01-10T16:23:35.326Z,4.90
2019-01-10T16:26:06.745Z,5.57
2019-01-10T16:28:37.980Z,5.20
2019-01-10T16:31:09.279Z,5.17
2019-01-10T16:33:40.429Z,5.00
2019-01-10T16:36:11.722Z,5.17
2019-01-10T16:38:42.988Z,5.20
2019-01-10T16:41:14.207Z,4.23
2019-01-10T16:43:45.455Z,6.87
2019-01-10T16:46:16.753Z,5.87
2019-01-10T16:48:47.952Z,5.37
2019-01-10T16:51:19.204Z,5.10
2019-01-10T16:53:50.471Z,4.77
2019-01-10T16:56:21.612Z,5.47
2019-01-10T16:58:52.887Z,5.60
2019-01-10T17:01:43.117Z,4.97
2019-01-10T17:04:14.438Z,6.30
2019-01-10T17:06:45.693Z,6.20
2019-01-10T17:09:17.766Z,5.97
2019-01-10T17:11:49.240Z,6.70
2019-01-10T17:14:20.501Z,5.83
2019-01-10T17:16:51.688Z,6.17
2019-01-10T17:19:23.816Z,6.57
2019-01-10T17:21:55.096Z,6.30
2019-01-10T17:24:26.376Z,5.60
2019-01-10T17:26:57.686Z,5.70
2019-01-10T17:29:32.205Z,5.90
2019-01-10T17:32:03.423Z,5.73
2019-01-10T17:34:34.928Z,6.73
2019-01-10T17:37:06.239Z,6.20
2019-01-10T17:39:37.380Z,6.60
2019-01-10T17:42:08.775Z,5.87
2019-01-10T17:44:40.059Z,5.97
2019-01-10T17:47:20.388Z,6.83
2019-01-10T17:49:52.556Z,6.87
2019-01-10T17:52:26.693Z,7.20
2019-01-10T17:55:05.683Z,6.97
2019-01-10T17:57:37.166Z,7.10
2019-01-10T18:00:13.508Z,5.57
2019-01-10T18:02:44.721Z,6.67
2019-01-10T18:05:15.969Z,4.60
2019-01-10T18:07:47.260Z,4.77
2019-01-10T18:10:20.181Z,5.33
2019-01-10T18:12:51.597Z,5.33
2019-01-10T18:15:23.851Z,5.23
2019-01-10T18:17:55.183Z,5.93
2019-01-10T18:20:30.543Z,6.43
2019-01-10T18:23:01.810Z,6.40
2019-01-10T18:25:33.123Z,7.33
2019-01-10T18:28:04.463Z,5.97
2019-01-10T18:30:35.880Z,6.13
2019-01-10T18:33:07.180Z,5.63
2019-01-10T18:35:38.578Z,5.90
2019-01-10T18:38:09.872Z,5.83
2019-01-10T18:40:41.178Z,5.90
2019-01-10T18:43:12.480Z,7.50
2019-01-10T18:45:44.336Z,4.50
2019-01-10T18:48:17.358Z,5.00
2019-01-10T18:50:48.650Z,5.73
2019-01-10T18:53:20.758Z,5.77
2019-01-10T18:55:52.598Z,6.27
2019-01-10T18:58:26.324Z,5.77
2019-01-10T19:01:04.403Z,6.30
2019-01-10T19:03:39.222Z,6.87
2019-01-10T19:06:12.590Z,5.63
2019-01-10T19:08:44.628Z,5.90
2019-01-10T19:11:16.892Z,6.03
2019-01-10T19:13:49.069Z,5.80
2019-01-10T19:16:21.416Z,7.03
2019-01-10T19:18:52.921Z,6.40
2019-01-10T19:21:25.119Z,7.23
2019-01-10T19:23:57.117Z,6.73
2019-01-10T19:26:29.061Z,6.40
2019-01-10T19:29:01.878Z,5.87
2019-01-10T19:31:35.279Z,6.03
2019-01-10T19:34:07.395Z,7.03
2019-01-10T19:36:38.869Z,5.77
2019-01-10T19:39:10.809Z,6.17
2019-01-10T19:41:42.265Z,6.87
2019-01-10T19:44:14.213Z,5.97
2019-01-10T19:46:46.027Z,7.50
2019-01-10T19:49:18.357Z,6.30
2019-01-10T19:51:51.363Z,5.80
2019-01-10T19:54:22.912Z,6.50
2019-01-10T19:56:55.763Z,6.27
2019-01-10T19:59:27.565Z,6.40
2019-01-10T20:01:58.927Z,6.90
2019-01-10T20:04:32.114Z,6.80
2019-01-10T20:07:05.332Z,5.80
2019-01-10T20:09:37.012Z,6.03
2019-01-10T20:12:08.390Z,5.30
2019-01-10T20:14:39.687Z,6.47
2019-01-10T20:17:10.944Z,5.70
2019-01-10T20:19:42.194Z,6.47
2019-01-10T20:22:13.407Z,5.97
2019-01-10T20:24:44.722Z,5.83
2019-01-10T20:27:15.910Z,5.83
2019-01-10T20:29:47.844Z,6.37
2019-01-10T20:32:19.176Z,6.17
2019-01-10T20:34:50.456Z,5.27
2019-01-10T20:37:21.738Z,6.70
2019-01-10T20:39:53.040Z,6.03
2019-01-10T20:42:24.327Z,5.63
2019-01-10T20:44:55.615Z,6.57
2019-01-10T20:47:26.949Z,5.17
2019-01-10T20:49:58.249Z,6.67
2019-01-10T20:52:29.547Z,6.63
2019-01-10T20:55:00.762Z,6.10
2019-01-10T20:57:32.074Z,5.70
2019-01-10T21:00:03.341Z,6.67
2019-01-10T21:02:34.734Z,5.47
2019-01-10T21:05:06.609Z,5.00
2019-01-10T21:07:37.909Z,7.00
2019-01-10T21:10:11.730Z,5.57
2019-01-10T21:12:45.979Z,4.67
2019-01-10T21:15:21.022Z,5.90
2019-01-10T21:17:52.350Z,5.10
2019-01-10T21:20:23.614Z,5.47
2019-01-10T21:22:55.344Z,5.13
2019-01-10T21:25:26.567Z,5.17
2019-01-10T21:27:58.011Z,5.83
2019-01-10T21:30:29.268Z,5.80
2019-01-10T21:33:00.532Z,6.17
2019-01-10T21:35:31.765Z,7.43
2019-01-10T21:38:03.017Z,6.87
2019-01-10T21:40:34.416Z,7.53
2019-01-10T21:43:06.498Z,7.83
2019-01-10T21:45:39.334Z,6.60
2019-01-10T21:48:10.735Z,7.53
2019-01-10T21:50:42.027Z,6.60
2019-01-10T21:53:13.318Z,7.67
2019-01-10T21:55:45.409Z,6.80
2019-01-10T21:58:16.684Z,6.83
2019-01-10T22:00:48.084Z,7.60
2019-01-10T22:03:19.355Z,6.87
2019-01-10T22:05:50.647Z,7.30
2019-01-10T22:08:21.914Z,7.03
2019-01-10T22:10:53.252Z,6.63
2019-01-10T22:13:24.476Z,10.57
2019-01-10T22:15:55.786Z,10.40
2019-01-10T22:18:27.104Z,10.23
2019-01-10T22:20:58.563Z,14.07
2019-01-10T22:23:29.835Z,15.43
2019-01-10T22:26:01.041Z,14.20
2019-01-10T22:28:32.239Z,14.67
2019-01-10T22:31:03.452Z,12.03
2019-01-10T22:33:35.094Z,8.50
2019-01-10T22:36:06.353Z,10.20
2019-01-10T22:38:37.658Z,8.33
2019-01-10T22:41:08.903Z,9.10
2019-01-10T22:43:40.159Z,8.10
2019-01-10T22:46:12.819Z,8.60
2019-01-10T22:48:47.865Z,8.73
2019-01-10T22:51:17.013Z,8.93
2019-01-10T22:53:48.314Z,10.40
2019-01-10T22:56:20.606Z,8.63
2019-01-10T22:58:51.909Z,10.13
2019-01-10T23:01:48.020Z,11.00
2019-01-10T23:04:29.454Z,11.23
2019-01-10T23:07:00.882Z,10.57
2019-01-10T23:09:32.410Z,10.20
2019-01-10T23:12:05.253Z,10.03
2019-01-10T23:14:36.526Z,9.60
2019-01-10T23:17:08.256Z,9.43
2019-01-10T23:19:50.754Z,8.77
2019-01-10T23:22:22.429Z,10.17
2019-01-10T23:25:00.497Z,10.60
2019-01-10T23:27:32.073Z,10.60
2019-01-10T23:30:03.504Z,11.37
2019-01-10T23:32:34.745Z,12.00
2019-01-10T23:35:07.524Z,10.47
2019-01-10T23:37:39.337Z,11.30
2019-01-10T23:40:11.185Z,9.63
2019-01-10T23:42:42.432Z,9.67
2019-01-10T23:45:13.803Z,8.40
2019-01-10T23:47:45.028Z,7.60
2019-01-10T23:50:16.362Z,8.60
2019-01-10T23:52:47.606Z,7.00
2019-01-10T23:55:18.941Z,7.50
2019-01-10T23:57:50.207Z,8.80
